This is the latest recevied weather packets stored in our database for station/object SP2MHC-2. If no packets are shown the sender has not sent any weather packets the latest 10 day(s).
| Time | Temp. | Humidity | Pressure | Rain* | Wind** | Luminosity | Snow |
|---|---|---|---|---|---|---|---|
| 1777750195 | 10° C | 45% | 1013.8 hPa | - | - | - | - |
| 1777750195 | 10° C | 45% | 1013.8 hPa | - | - | - | - |
| 1777749295 | 11.11° C | 42% | 1013.8 hPa | - | - | - | - |
| 1777749295 | 11.11° C | 42% | 1013.8 hPa | - | - | - | - |
| 1777748395 | 11.67° C | 40% | 1013.9 hPa | - | - | - | - |
| 1777748394 | 11.67° C | 40% | 1013.9 hPa | - | - | - | - |
| 1777747495 | 11.67° C | 40% | 1013.8 hPa | - | - | - | - |
| 1777747494 | 11.67° C | 40% | 1013.8 hPa | - | - | - | - |
| 1777746595 | 12.78° C | 39% | 1013.8 hPa | - | - | - | - |
| 1777746594 | 12.78° C | 39% | 1013.8 hPa | - | - | - | - |
| 1777744794 | 15.56° C | 34% | 1013.7 hPa | - | - | - | - |
| 1777743896 | 16.67° C | 33% | 1013.7 hPa | - | - | - | - |
| 1777742096 | 18.33° C | 32% | 1013.8 hPa | - | - | - | - |
| 1777741198 | 18.33° C | 32% | 1013.7 hPa | - | - | - | - |
| 1777741193 | 18.33° C | 32% | 1013.7 hPa | - | - | - | - |
| 1777739396 | 19.44° C | 31% | 1014 hPa | - | - | - | - |
| 1777739393 | 19.44° C | 31% | 1014 hPa | - | - | - | - |
| 1777737888 | 26.11° C | 18% | 1014.2 hPa | - | - | - | - |
| 1777737838 | 26.11° C | 18% | 1014.2 hPa | - | - | - | - |
| 1777736926 | 26.11° C | 17% | 1014.2 hPa | - | - | - | - |
| 1777735759 | 26.11° C | 16% | 1014.5 hPa | - | - | - | - |
| 1777735176 | 26.67° C | 17% | 1014.6 hPa | - | - | - | - |
| 1777733926 | 26.67° C | 16% | 1014.7 hPa | - | - | - | - |
| 1777733508 | 26.67° C | 16% | 1014.8 hPa | - | - | - | - |
| 1777732208 | 27.22° C | 16% | 1015.2 hPa | - | - | - | - |
* Rain since midnight (hover to see other rain measurements)
** Current wind speed in m/s (hover to see current wind gust speed)